Tuesday, May 22, 2018, 5:51 AM GMT
Back to Local

CYHZ, Halifax International Airport

Location: , , Canada Lat: 44.883
Local Time: 5:51 AM GMT ( 5:51 GMT) Lon: -63.5
Time Zone: GMT Elev: 475 ft

Show me the last for .
Show Decoded

2018-05-22 05:00 METAR CYHZ 220500Z 04009KT 15SM FEW090 08/M03 A3009 RMK AC1 AC TR SLP191 =
2018-05-22 04:00 METAR CYHZ 220400Z 03007KT 15SM FEW090 08/M03 A3009 RMK AC1 AC TR SLP195 =
2018-05-22 03:00 METAR CYHZ 220300Z 04006KT 15SM FEW090 10/M02 A3009 RMK AC1 AC TR SLP191 =
2018-05-22 02:00 METAR CYHZ 220200Z 36009G16KT 15SM FEW090 12/03 A3006 RMK AC2 PRESRR SLP184 =
2018-05-22 01:00 METAR CYHZ 220100Z 30008KT 15SM FEW090 15/04 A3001 RMK AC2 PRESRR SLP165 DENSITY
                 ALT 600FT =
2018-05-22 00:00 METAR CYHZ 220000Z 26015KT 15SM SCT090 17/03 A2996 RMK AC4 SLP147 DENSITY ALT
                 900FT =
2018-05-21 23:00 METAR CYHZ 212300Z 29008KT 15SM FEW090 BKN110 19/03 A2993 RMK AC2AC3 SLP137
                 DENSITY ALT 1000FT =
2018-05-21 22:00 METAR CYHZ 212200Z 28012KT 15SM BKN110 19/02 A2990 RMK AC5 SLP129 DENSITY ALT
                 1200FT =
2018-05-21 21:00 METAR CYHZ 212100Z 29016G27KT 15SM SCT100 20/02 A2989 RMK AC4 SLP126 DENSITY ALT
                 1300FT =
2018-05-21 20:00 METAR CYHZ 212000Z 28017G26KT 15SM FEW065 20/02 A2988 RMK CU1 SLP123 DENSITY ALT
                 1300FT =
2018-05-21 19:00 METAR CYHZ 211900Z 28018G26KT 15SM FEW060 21/01 A2989 RMK CU2 SLP124 DENSITY ALT
                 1300FT =
2018-05-21 18:00 METAR CYHZ 211800Z 27017KT 240V310 15SM FEW060 20/02 A2989 RMK CU1 SLP125
                 DENSITY ALT 1300FT =
2018-05-21 17:00 METAR CYHZ 211700Z 26019G32KT 210V290 15SM FEW040 19/02 A2990 RMK CU1 CU TR
                 SLP128 DENSITY ALT 1200FT =
2018-05-21 16:00 METAR CYHZ 211600Z 27012G18KT 240V320 14SM FEW040 18/03 A2993 RMK CU1 CU TR
                 SLP139 DENSITY ALT 1000FT =
2018-05-21 15:00 METAR CYHZ 211500Z 25013G19KT 240V310 15SM FEW040 17/03 A2996 RMK CU1 CU TR
                 SLP147 DENSITY ALT 800FT =
2018-05-21 14:00 METAR CYHZ 211400Z 28011KT 240V310 15SM FEW035 16/04 A2997 RMK CF1 CF TR SLP151
                 DENSITY ALT 700FT =
2018-05-21 13:00 METAR CYHZ 211300Z 28007KT 240V300 15SM SKC 15/08 A2998 RMK SLP155 DENSITY ALT
                 500FT =
2018-05-21 12:00 METAR CYHZ 211200Z 25006KT 240V310 15SM SKC 13/07 A2997 RMK SLP153 =
2018-05-21 11:00 METAR CYHZ 211100Z 29005KT 15SM FEW030 11/09 A2997 RMK CF1 CF TR SLP153 =
2018-05-21 10:00 METAR CYHZ 211000Z 27005KT 15SM SKC 10/09 A2995 RMK SLP147 =
2018-05-21 09:00 METAR CYHZ 210900Z 30004KT 15SM FEW220 08/08 A2994 RMK CI1 CI TR SLP141 =
2018-05-21 08:00 METAR CYHZ 210800Z 34005KT 15SM FEW220 09/09 A2992 RMK CI1 SLP134 =
2018-05-21 07:00 METAR CYHZ 210700Z 35005KT 15SM FEW220 09/09 A2990 RMK CI1 SLP129 =
2018-05-21 06:00 METAR CYHZ 210600Z 01007KT 15SM FEW030 FEW220 11/09 A2989 RMK SC1CS1 SLP126 =

Support USWX by starting your Amazon purchase here.